sensor_id;sensor_type;location;lat;lon;timestamp;temperature;humidity
18260;DHT22;9256;52.236;5.712;2023-07-31T00:01:58;15.30;99.90
18260;DHT22;9256;52.236;5.712;2023-07-31T00:04:25;15.30;99.90
18260;DHT22;9256;52.236;5.712;2023-07-31T00:06:52;15.30;99.90
18260;DHT22;9256;52.236;5.712;2023-07-31T00:09:20;15.30;99.90
18260;DHT22;9256;52.236;5.712;2023-07-31T00:11:47;15.30;99.90
18260;DHT22;9256;52.236;5.712;2023-07-31T00:14:14;15.30;99.90
18260;DHT22;9256;52.236;5.712;2023-07-31T00:16:40;15.40;99.90
18260;DHT22;9256;52.236;5.712;2023-07-31T00:19:07;15.30;99.90
18260;DHT22;9256;52.236;5.712;2023-07-31T00:21:34;15.40;99.90
18260;DHT22;9256;52.236;5.712;2023-07-31T00:24:01;15.40;99.90
18260;DHT22;9256;52.236;5.712;2023-07-31T00:26:29;15.40;99.90
18260;DHT22;9256;52.236;5.712;2023-07-31T00:28:56;15.50;99.90
18260;DHT22;9256;52.236;5.712;2023-07-31T00:31:23;15.50;99.90
18260;DHT22;9256;52.236;5.712;2023-07-31T00:33:50;15.40;99.90
18260;DHT22;9256;52.236;5.712;2023-07-31T00:36:17;15.50;99.90
18260;DHT22;9256;52.236;5.712;2023-07-31T00:38:44;15.50;99.90
18260;DHT22;9256;52.236;5.712;2023-07-31T00:41:11;15.50;99.90
18260;DHT22;9256;52.236;5.712;2023-07-31T00:43:39;15.60;99.90
18260;DHT22;9256;52.236;5.712;2023-07-31T00:46:06;15.50;99.90
18260;DHT22;9256;52.236;5.712;2023-07-31T00:48:34;15.60;99.90
18260;DHT22;9256;52.236;5.712;2023-07-31T00:51:01;15.70;99.90
18260;DHT22;9256;52.236;5.712;2023-07-31T00:53:28;15.70;99.90
18260;DHT22;9256;52.236;5.712;2023-07-31T00:55:55;15.60;99.90
18260;DHT22;9256;52.236;5.712;2023-07-31T00:58:22;15.60;99.90
18260;DHT22;9256;52.236;5.712;2023-07-31T01:00:51;15.70;99.90
18260;DHT22;9256;52.236;5.712;2023-07-31T01:03:18;15.60;99.90
18260;DHT22;9256;52.236;5.712;2023-07-31T01:05:52;15.60;99.90
18260;DHT22;9256;52.236;5.712;2023-07-31T01:08:26;15.70;99.90
18260;DHT22;9256;52.236;5.712;2023-07-31T01:11:00;15.60;99.90
18260;DHT22;9256;52.236;5.712;2023-07-31T01:13:29;15.60;99.90
18260;DHT22;9256;52.236;5.712;2023-07-31T01:15:57;15.70;99.90
18260;DHT22;9256;52.236;5.712;2023-07-31T01:18:24;15.70;99.90
18260;DHT22;9256;52.236;5.712;2023-07-31T01:20:54;15.70;99.90
18260;DHT22;9256;52.236;5.712;2023-07-31T01:23:38;15.70;99.90
18260;DHT22;9256;52.236;5.712;2023-07-31T01:26:15;15.70;99.90
18260;DHT22;9256;52.236;5.712;2023-07-31T01:28:53;15.70;99.90
18260;DHT22;9256;52.236;5.712;2023-07-31T01:31:24;15.80;99.90
18260;DHT22;9256;52.236;5.712;2023-07-31T01:33:53;15.80;99.90
18260;DHT22;9256;52.236;5.712;2023-07-31T01:36:21;15.90;99.90
18260;DHT22;9256;52.236;5.712;2023-07-31T01:38:48;16.00;99.90
18260;DHT22;9256;52.236;5.712;2023-07-31T01:41:18;16.10;99.90
18260;DHT22;9256;52.236;5.712;2023-07-31T01:43:45;16.10;99.90
18260;DHT22;9256;52.236;5.712;2023-07-31T01:46:11;16.10;99.90
18260;DHT22;9256;52.236;5.712;2023-07-31T01:48:38;16.20;99.90
18260;DHT22;9256;52.236;5.712;2023-07-31T01:51:05;16.10;99.90
18260;DHT22;9256;52.236;5.712;2023-07-31T01:53:32;16.20;99.90
18260;DHT22;9256;52.236;5.712;2023-07-31T01:55:59;16.20;99.90
18260;DHT22;9256;52.236;5.712;2023-07-31T01:58:27;16.10;99.90
18260;DHT22;9256;52.236;5.712;2023-07-31T02:00:54;16.10;99.90
18260;DHT22;9256;52.236;5.712;2023-07-31T02:03:22;16.10;99.90
18260;DHT22;9256;52.236;5.712;2023-07-31T02:05:49;16.10;99.90
18260;DHT22;9256;52.236;5.712;2023-07-31T02:08:16;16.10;99.90
18260;DHT22;9256;52.236;5.712;2023-07-31T02:10:43;16.10;99.90
18260;DHT22;9256;52.236;5.712;2023-07-31T02:13:10;16.10;99.90
18260;DHT22;9256;52.236;5.712;2023-07-31T02:15:38;16.10;99.90
18260;DHT22;9256;52.236;5.712;2023-07-31T02:18:05;16.10;99.90
18260;DHT22;9256;52.236;5.712;2023-07-31T02:20:34;16.00;99.90
18260;DHT22;9256;52.236;5.712;2023-07-31T02:23:01;16.10;99.90
18260;DHT22;9256;52.236;5.712;2023-07-31T02:25:28;16.20;99.90
18260;DHT22;9256;52.236;5.712;2023-07-31T02:27:55;16.10;99.90
18260;DHT22;9256;52.236;5.712;2023-07-31T02:30:22;16.20;99.90
18260;DHT22;9256;52.236;5.712;2023-07-31T02:32:50;16.20;99.90
18260;DHT22;9256;52.236;5.712;2023-07-31T02:35:17;16.10;99.90
18260;DHT22;9256;52.236;5.712;2023-07-31T02:37:44;16.20;99.90
18260;DHT22;9256;52.236;5.712;2023-07-31T02:40:12;16.20;99.90
18260;DHT22;9256;52.236;5.712;2023-07-31T02:42:39;16.20;99.90
18260;DHT22;9256;52.236;5.712;2023-07-31T02:45:07;16.20;99.90
18260;DHT22;9256;52.236;5.712;2023-07-31T02:47:34;16.30;99.90
18260;DHT22;9256;52.236;5.712;2023-07-31T02:50:02;16.30;99.90
18260;DHT22;9256;52.236;5.712;2023-07-31T02:52:29;16.30;99.90
18260;DHT22;9256;52.236;5.712;2023-07-31T02:54:56;16.40;99.90
18260;DHT22;9256;52.236;5.712;2023-07-31T02:57:23;16.30;99.90
18260;DHT22;9256;52.236;5.712;2023-07-31T02:59:50;16.40;99.90
18260;DHT22;9256;52.236;5.712;2023-07-31T03:02:17;16.30;99.90
18260;DHT22;9256;52.236;5.712;2023-07-31T03:04:44;16.40;99.90
18260;DHT22;9256;52.236;5.712;2023-07-31T03:07:12;16.40;99.90
18260;DHT22;9256;52.236;5.712;2023-07-31T03:09:39;16.40;99.90
18260;DHT22;9256;52.236;5.712;2023-07-31T03:12:07;16.30;99.90
18260;DHT22;9256;52.236;5.712;2023-07-31T03:14:34;16.40;99.90
18260;DHT22;9256;52.236;5.712;2023-07-31T03:17:01;16.40;99.90
18260;DHT22;9256;52.236;5.712;2023-07-31T03:19:30;16.40;99.90
18260;DHT22;9256;52.236;5.712;2023-07-31T03:21:57;16.40;99.90
18260;DHT22;9256;52.236;5.712;2023-07-31T03:24:26;16.40;99.90
18260;DHT22;9256;52.236;5.712;2023-07-31T03:26:53;16.40;99.90
18260;DHT22;9256;52.236;5.712;2023-07-31T03:29:19;16.30;99.90
18260;DHT22;9256;52.236;5.712;2023-07-31T03:31:46;16.30;99.90
18260;DHT22;9256;52.236;5.712;2023-07-31T03:34:13;16.40;99.90
18260;DHT22;9256;52.236;5.712;2023-07-31T03:36:40;16.40;99.90
18260;DHT22;9256;52.236;5.712;2023-07-31T03:39:07;16.30;99.90
18260;DHT22;9256;52.236;5.712;2023-07-31T03:41:35;16.40;99.90
18260;DHT22;9256;52.236;5.712;2023-07-31T03:44:02;16.30;99.90
18260;DHT22;9256;52.236;5.712;2023-07-31T03:46:29;16.40;99.90
18260;DHT22;9256;52.236;5.712;2023-07-31T03:48:56;16.40;99.90
18260;DHT22;9256;52.236;5.712;2023-07-31T03:51:23;16.40;99.90
18260;DHT22;9256;52.236;5.712;2023-07-31T03:53:50;16.40;99.90
18260;DHT22;9256;52.236;5.712;2023-07-31T03:56:17;16.30;99.90
18260;DHT22;9256;52.236;5.712;2023-07-31T03:58:45;16.40;99.90
18260;DHT22;9256;52.236;5.712;2023-07-31T04:01:12;16.30;99.90
18260;DHT22;9256;52.236;5.712;2023-07-31T04:03:39;16.30;99.90
18260;DHT22;9256;52.236;5.712;2023-07-31T04:06:06;16.30;99.90
18260;DHT22;9256;52.236;5.712;2023-07-31T04:08:34;16.30;99.90
18260;DHT22;9256;52.236;5.712;2023-07-31T04:11:00;16.30;99.90
18260;DHT22;9256;52.236;5.712;2023-07-31T04:13:29;16.30;99.90
18260;DHT22;9256;52.236;5.712;2023-07-31T04:15:57;16.30;99.90
18260;DHT22;9256;52.236;5.712;2023-07-31T04:18:25;16.30;99.90
18260;DHT22;9256;52.236;5.712;2023-07-31T04:20:52;16.20;99.90
18260;DHT22;9256;52.236;5.712;2023-07-31T04:23:20;16.20;99.90
18260;DHT22;9256;52.236;5.712;2023-07-31T04:25:46;16.20;99.90
18260;DHT22;9256;52.236;5.712;2023-07-31T04:28:13;16.20;99.90
18260;DHT22;9256;52.236;5.712;2023-07-31T04:30:40;16.20;99.90
18260;DHT22;9256;52.236;5.712;2023-07-31T04:33:08;16.20;99.90
18260;DHT22;9256;52.236;5.712;2023-07-31T04:35:35;16.20;99.90
18260;DHT22;9256;52.236;5.712;2023-07-31T04:38:02;16.20;99.90
18260;DHT22;9256;52.236;5.712;2023-07-31T04:40:29;16.10;99.90
18260;DHT22;9256;52.236;5.712;2023-07-31T04:42:56;16.20;99.90
18260;DHT22;9256;52.236;5.712;2023-07-31T04:45:23;16.20;99.90
18260;DHT22;9256;52.236;5.712;2023-07-31T04:47:50;16.10;99.90
18260;DHT22;9256;52.236;5.712;2023-07-31T04:50:18;16.20;99.90
18260;DHT22;9256;52.236;5.712;2023-07-31T04:52:45;16.20;99.90
18260;DHT22;9256;52.236;5.712;2023-07-31T04:55:12;16.20;99.90
18260;DHT22;9256;52.236;5.712;2023-07-31T04:57:39;16.20;99.90
18260;DHT22;9256;52.236;5.712;2023-07-31T05:00:07;16.20;99.90
18260;DHT22;9256;52.236;5.712;2023-07-31T05:02:34;16.20;99.90
18260;DHT22;9256;52.236;5.712;2023-07-31T05:05:01;16.20;99.90
18260;DHT22;9256;52.236;5.712;2023-07-31T05:07:29;16.10;99.90
18260;DHT22;9256;52.236;5.712;2023-07-31T05:09:56;16.10;99.90
18260;DHT22;9256;52.236;5.712;2023-07-31T05:12:23;16.10;99.90
18260;DHT22;9256;52.236;5.712;2023-07-31T05:14:50;16.20;99.90
18260;DHT22;9256;52.236;5.712;2023-07-31T05:17:17;16.20;99.90
18260;DHT22;9256;52.236;5.712;2023-07-31T05:19:44;16.10;99.90
18260;DHT22;9256;52.236;5.712;2023-07-31T05:22:10;16.20;99.90
18260;DHT22;9256;52.236;5.712;2023-07-31T05:24:39;16.20;99.90
18260;DHT22;9256;52.236;5.712;2023-07-31T05:27:06;16.10;99.90
18260;DHT22;9256;52.236;5.712;2023-07-31T05:29:33;16.10;99.90
18260;DHT22;9256;52.236;5.712;2023-07-31T05:32:00;16.20;99.90
18260;DHT22;9256;52.236;5.712;2023-07-31T05:34:27;16.20;99.90
18260;DHT22;9256;52.236;5.712;2023-07-31T05:36:54;16.20;99.90
18260;DHT22;9256;52.236;5.712;2023-07-31T05:39:21;16.10;99.90
18260;DHT22;9256;52.236;5.712;2023-07-31T05:41:49;16.10;99.90
18260;DHT22;9256;52.236;5.712;2023-07-31T05:44:16;16.10;99.90
18260;DHT22;9256;52.236;5.712;2023-07-31T05:46:43;16.10;99.90
18260;DHT22;9256;52.236;5.712;2023-07-31T05:49:10;16.10;99.90
18260;DHT22;9256;52.236;5.712;2023-07-31T05:51:37;16.10;99.90
18260;DHT22;9256;52.236;5.712;2023-07-31T05:54:04;16.00;99.90
18260;DHT22;9256;52.236;5.712;2023-07-31T05:56:31;16.00;99.90
18260;DHT22;9256;52.236;5.712;2023-07-31T05:59:01;16.00;99.90
18260;DHT22;9256;52.236;5.712;2023-07-31T06:01:28;16.10;99.90
18260;DHT22;9256;52.236;5.712;2023-07-31T06:03:55;16.00;99.90
18260;DHT22;9256;52.236;5.712;2023-07-31T06:06:22;16.10;99.90
18260;DHT22;9256;52.236;5.712;2023-07-31T06:08:49;16.10;99.90
18260;DHT22;9256;52.236;5.712;2023-07-31T06:11:16;16.00;99.90
18260;DHT22;9256;52.236;5.712;2023-07-31T06:13:43;16.10;99.90
18260;DHT22;9256;52.236;5.712;2023-07-31T06:16:14;16.10;99.90
18260;DHT22;9256;52.236;5.712;2023-07-31T06:18:41;16.10;99.90
18260;DHT22;9256;52.236;5.712;2023-07-31T06:21:08;16.10;99.90
18260;DHT22;9256;52.236;5.712;2023-07-31T06:23:35;16.20;99.90
18260;DHT22;9256;52.236;5.712;2023-07-31T06:26:02;16.20;99.90
18260;DHT22;9256;52.236;5.712;2023-07-31T06:28:29;16.20;99.90
18260;DHT22;9256;52.236;5.712;2023-07-31T06:30:56;16.30;99.90
18260;DHT22;9256;52.236;5.712;2023-07-31T06:33:24;16.30;99.90
18260;DHT22;9256;52.236;5.712;2023-07-31T06:35:51;16.30;99.90
18260;DHT22;9256;52.236;5.712;2023-07-31T06:38:21;16.30;99.90
18260;DHT22;9256;52.236;5.712;2023-07-31T06:40:48;16.40;99.90
18260;DHT22;9256;52.236;5.712;2023-07-31T06:43:15;16.40;99.90
18260;DHT22;9256;52.236;5.712;2023-07-31T06:45:42;16.40;99.90
18260;DHT22;9256;52.236;5.712;2023-07-31T06:48:10;16.40;99.90
18260;DHT22;9256;52.236;5.712;2023-07-31T06:50:38;16.40;99.90
18260;DHT22;9256;52.236;5.712;2023-07-31T06:53:05;16.40;99.90
18260;DHT22;9256;52.236;5.712;2023-07-31T06:55:32;16.40;99.90
18260;DHT22;9256;52.236;5.712;2023-07-31T06:57:59;16.40;99.90
18260;DHT22;9256;52.236;5.712;2023-07-31T07:00:26;16.50;99.90
18260;DHT22;9256;52.236;5.712;2023-07-31T07:02:54;16.50;99.90
18260;DHT22;9256;52.236;5.712;2023-07-31T07:05:21;16.60;99.90
18260;DHT22;9256;52.236;5.712;2023-07-31T07:07:51;16.50;99.90
18260;DHT22;9256;52.236;5.712;2023-07-31T07:10:18;16.60;99.90
18260;DHT22;9256;52.236;5.712;2023-07-31T07:12:46;16.50;99.90
18260;DHT22;9256;52.236;5.712;2023-07-31T07:15:13;16.60;99.90
18260;DHT22;9256;52.236;5.712;2023-07-31T07:17:40;16.60;99.90
18260;DHT22;9256;52.236;5.712;2023-07-31T07:20:08;16.60;99.90
18260;DHT22;9256;52.236;5.712;2023-07-31T07:22:35;16.80;99.90
18260;DHT22;9256;52.236;5.712;2023-07-31T07:25:04;16.80;99.90
18260;DHT22;9256;52.236;5.712;2023-07-31T07:27:32;16.80;99.90
18260;DHT22;9256;52.236;5.712;2023-07-31T07:29:59;16.90;99.90
18260;DHT22;9256;52.236;5.712;2023-07-31T07:32:26;16.90;99.90
18260;DHT22;9256;52.236;5.712;2023-07-31T07:34:53;16.80;99.90
18260;DHT22;9256;52.236;5.712;2023-07-31T07:37:21;16.80;99.90
18260;DHT22;9256;52.236;5.712;2023-07-31T07:39:48;16.80;99.90
18260;DHT22;9256;52.236;5.712;2023-07-31T07:42:17;16.80;99.90
18260;DHT22;9256;52.236;5.712;2023-07-31T07:44:44;16.90;99.90
18260;DHT22;9256;52.236;5.712;2023-07-31T07:47:11;16.90;99.90
18260;DHT22;9256;52.236;5.712;2023-07-31T07:49:38;16.90;99.90
18260;DHT22;9256;52.236;5.712;2023-07-31T07:52:05;16.90;99.90
18260;DHT22;9256;52.236;5.712;2023-07-31T07:54:32;17.00;99.90
18260;DHT22;9256;52.236;5.712;2023-07-31T07:56:59;17.00;99.90
18260;DHT22;9256;52.236;5.712;2023-07-31T07:59:28;17.00;99.90
18260;DHT22;9256;52.236;5.712;2023-07-31T08:01:55;17.00;99.90
18260;DHT22;9256;52.236;5.712;2023-07-31T08:04:23;17.10;99.90
18260;DHT22;9256;52.236;5.712;2023-07-31T08:06:50;17.00;99.90
18260;DHT22;9256;52.236;5.712;2023-07-31T08:09:16;17.10;99.90
18260;DHT22;9256;52.236;5.712;2023-07-31T08:11:43;17.10;99.90
18260;DHT22;9256;52.236;5.712;2023-07-31T08:14:10;17.00;99.90
18260;DHT22;9256;52.236;5.712;2023-07-31T08:16:39;17.10;99.90
18260;DHT22;9256;52.236;5.712;2023-07-31T08:19:05;17.10;99.90
18260;DHT22;9256;52.236;5.712;2023-07-31T08:21:32;17.10;99.90
18260;DHT22;9256;52.236;5.712;2023-07-31T08:23:59;17.20;99.90
18260;DHT22;9256;52.236;5.712;2023-07-31T08:26:26;17.20;99.90
18260;DHT22;9256;52.236;5.712;2023-07-31T08:28:53;17.20;99.90
18260;DHT22;9256;52.236;5.712;2023-07-31T08:31:20;17.30;99.90
18260;DHT22;9256;52.236;5.712;2023-07-31T08:33:48;17.30;99.90
18260;DHT22;9256;52.236;5.712;2023-07-31T08:36:15;17.30;99.90
18260;DHT22;9256;52.236;5.712;2023-07-31T08:38:42;17.30;99.90
18260;DHT22;9256;52.236;5.712;2023-07-31T08:41:09;17.30;99.90
18260;DHT22;9256;52.236;5.712;2023-07-31T08:43:37;17.40;99.90
18260;DHT22;9256;52.236;5.712;2023-07-31T08:46:05;17.40;99.90
18260;DHT22;9256;52.236;5.712;2023-07-31T08:48:32;17.50;99.90
18260;DHT22;9256;52.236;5.712;2023-07-31T08:51:00;17.50;99.90
18260;DHT22;9256;52.236;5.712;2023-07-31T08:53:27;17.40;99.90
18260;DHT22;9256;52.236;5.712;2023-07-31T08:55:55;17.60;99.90
18260;DHT22;9256;52.236;5.712;2023-07-31T08:58:24;17.60;99.90
18260;DHT22;9256;52.236;5.712;2023-07-31T09:00:52;17.70;99.90
18260;DHT22;9256;52.236;5.712;2023-07-31T09:03:23;17.70;99.90
18260;DHT22;9256;52.236;5.712;2023-07-31T09:05:51;17.80;99.90
18260;DHT22;9256;52.236;5.712;2023-07-31T09:08:21;17.70;99.90
18260;DHT22;9256;52.236;5.712;2023-07-31T09:10:48;17.70;99.90
18260;DHT22;9256;52.236;5.712;2023-07-31T09:13:16;17.70;99.90
18260;DHT22;9256;52.236;5.712;2023-07-31T09:15:44;17.70;99.90
18260;DHT22;9256;52.236;5.712;2023-07-31T09:18:12;17.80;99.90
18260;DHT22;9256;52.236;5.712;2023-07-31T09:20:40;17.80;99.90
18260;DHT22;9256;52.236;5.712;2023-07-31T09:23:08;17.80;99.90
18260;DHT22;9256;52.236;5.712;2023-07-31T09:25:37;17.90;99.90
18260;DHT22;9256;52.236;5.712;2023-07-31T09:28:06;17.90;99.90
18260;DHT22;9256;52.236;5.712;2023-07-31T09:30:45;17.90;99.90
18260;DHT22;9256;52.236;5.712;2023-07-31T09:33:13;17.90;99.90
18260;DHT22;9256;52.236;5.712;2023-07-31T09:35:41;17.90;99.90
18260;DHT22;9256;52.236;5.712;2023-07-31T09:38:10;17.90;99.90
18260;DHT22;9256;52.236;5.712;2023-07-31T09:40:39;17.90;99.90
18260;DHT22;9256;52.236;5.712;2023-07-31T09:43:07;17.90;99.90
18260;DHT22;9256;52.236;5.712;2023-07-31T09:45:37;17.90;99.90
18260;DHT22;9256;52.236;5.712;2023-07-31T09:48:07;17.90;99.90
18260;DHT22;9256;52.236;5.712;2023-07-31T09:50:36;17.90;99.90
18260;DHT22;9256;52.236;5.712;2023-07-31T09:53:03;18.00;99.90
18260;DHT22;9256;52.236;5.712;2023-07-31T09:55:30;18.00;99.90
18260;DHT22;9256;52.236;5.712;2023-07-31T09:57:59;18.00;99.90
18260;DHT22;9256;52.236;5.712;2023-07-31T10:00:30;18.00;99.90
18260;DHT22;9256;52.236;5.712;2023-07-31T10:02:59;18.10;99.90
18260;DHT22;9256;52.236;5.712;2023-07-31T10:05:30;18.10;99.90
18260;DHT22;9256;52.236;5.712;2023-07-31T10:07:58;18.20;99.90
18260;DHT22;9256;52.236;5.712;2023-07-31T10:10:25;18.30;99.90
18260;DHT22;9256;52.236;5.712;2023-07-31T10:12:53;18.30;99.90
18260;DHT22;9256;52.236;5.712;2023-07-31T10:15:22;18.30;99.90
18260;DHT22;9256;52.236;5.712;2023-07-31T10:17:50;18.50;99.90
18260;DHT22;9256;52.236;5.712;2023-07-31T10:20:17;18.70;99.90
18260;DHT22;9256;52.236;5.712;2023-07-31T10:22:44;18.70;99.90
18260;DHT22;9256;52.236;5.712;2023-07-31T10:25:12;18.70;99.90
18260;DHT22;9256;52.236;5.712;2023-07-31T10:27:39;18.60;99.90
18260;DHT22;9256;52.236;5.712;2023-07-31T10:30:08;18.70;99.90
18260;DHT22;9256;52.236;5.712;2023-07-31T10:32:38;18.60;99.90
18260;DHT22;9256;52.236;5.712;2023-07-31T10:35:07;18.70;99.90
18260;DHT22;9256;52.236;5.712;2023-07-31T10:37:37;18.70;99.90
18260;DHT22;9256;52.236;5.712;2023-07-31T10:40:06;18.80;99.90
18260;DHT22;9256;52.236;5.712;2023-07-31T10:42:35;18.70;99.90
18260;DHT22;9256;52.236;5.712;2023-07-31T10:45:04;18.70;99.90
18260;DHT22;9256;52.236;5.712;2023-07-31T10:47:38;18.70;99.90
18260;DHT22;9256;52.236;5.712;2023-07-31T10:50:18;18.70;99.90
18260;DHT22;9256;52.236;5.712;2023-07-31T10:52:49;18.60;99.90
18260;DHT22;9256;52.236;5.712;2023-07-31T10:55:28;18.70;99.90
18260;DHT22;9256;52.236;5.712;2023-07-31T10:57:57;18.80;99.90
18260;DHT22;9256;52.236;5.712;2023-07-31T11:00:26;18.90;99.90
18260;DHT22;9256;52.236;5.712;2023-07-31T11:03:03;18.90;99.90
18260;DHT22;9256;52.236;5.712;2023-07-31T11:05:48;19.00;99.90
18260;DHT22;9256;52.236;5.712;2023-07-31T11:08:17;19.10;99.90
18260;DHT22;9256;52.236;5.712;2023-07-31T11:10:45;19.10;99.90
18260;DHT22;9256;52.236;5.712;2023-07-31T11:13:13;19.10;99.90
18260;DHT22;9256;52.236;5.712;2023-07-31T11:15:40;19.10;99.90
18260;DHT22;9256;52.236;5.712;2023-07-31T11:18:08;19.00;99.90
18260;DHT22;9256;52.236;5.712;2023-07-31T11:20:38;19.00;99.90
18260;DHT22;9256;52.236;5.712;2023-07-31T11:23:08;19.00;99.90
18260;DHT22;9256;52.236;5.712;2023-07-31T11:25:36;19.00;99.90
18260;DHT22;9256;52.236;5.712;2023-07-31T11:28:04;19.00;99.90
18260;DHT22;9256;52.236;5.712;2023-07-31T11:30:32;18.90;99.90
18260;DHT22;9256;52.236;5.712;2023-07-31T11:33:00;18.90;99.90
18260;DHT22;9256;52.236;5.712;2023-07-31T11:35:30;19.10;99.90
18260;DHT22;9256;52.236;5.712;2023-07-31T11:37:57;19.20;99.90
18260;DHT22;9256;52.236;5.712;2023-07-31T11:40:25;19.30;99.90
18260;DHT22;9256;52.236;5.712;2023-07-31T11:42:58;19.30;99.90
18260;DHT22;9256;52.236;5.712;2023-07-31T11:45:26;19.40;99.90
18260;DHT22;9256;52.236;5.712;2023-07-31T11:47:54;19.50;99.90
18260;DHT22;9256;52.236;5.712;2023-07-31T11:50:24;19.50;99.90
18260;DHT22;9256;52.236;5.712;2023-07-31T11:52:57;19.40;99.90
18260;DHT22;9256;52.236;5.712;2023-07-31T11:55:26;19.40;99.90
18260;DHT22;9256;52.236;5.712;2023-07-31T11:57:56;19.40;99.90
18260;DHT22;9256;52.236;5.712;2023-07-31T12:00:24;19.20;99.90
18260;DHT22;9256;52.236;5.712;2023-07-31T12:02:51;19.20;99.90
18260;DHT22;9256;52.236;5.712;2023-07-31T12:05:19;19.20;99.90
18260;DHT22;9256;52.236;5.712;2023-07-31T12:07:50;19.20;99.90
18260;DHT22;9256;52.236;5.712;2023-07-31T12:10:27;19.10;99.90
18260;DHT22;9256;52.236;5.712;2023-07-31T12:13:02;19.10;99.90
18260;DHT22;9256;52.236;5.712;2023-07-31T12:15:33;19.10;99.90
18260;DHT22;9256;52.236;5.712;2023-07-31T12:18:00;19.00;99.90
18260;DHT22;9256;52.236;5.712;2023-07-31T12:20:30;18.90;99.90
18260;DHT22;9256;52.236;5.712;2023-07-31T12:22:57;18.70;99.90
18260;DHT22;9256;52.236;5.712;2023-07-31T12:25:30;18.60;99.90
18260;DHT22;9256;52.236;5.712;2023-07-31T12:27:58;18.60;99.90
18260;DHT22;9256;52.236;5.712;2023-07-31T12:30:28;18.60;99.90
18260;DHT22;9256;52.236;5.712;2023-07-31T12:32:55;18.70;99.90
18260;DHT22;9256;52.236;5.712;2023-07-31T12:35:23;18.70;99.90
18260;DHT22;9256;52.236;5.712;2023-07-31T12:37:49;18.70;99.90
18260;DHT22;9256;52.236;5.712;2023-07-31T12:40:16;18.80;99.90
18260;DHT22;9256;52.236;5.712;2023-07-31T12:42:45;18.80;99.90
18260;DHT22;9256;52.236;5.712;2023-07-31T12:45:12;19.00;99.90
18260;DHT22;9256;52.236;5.712;2023-07-31T12:47:38;19.10;99.90
18260;DHT22;9256;52.236;5.712;2023-07-31T12:50:07;19.10;99.90
18260;DHT22;9256;52.236;5.712;2023-07-31T12:52:34;18.90;99.90
18260;DHT22;9256;52.236;5.712;2023-07-31T12:55:01;19.00;99.90
18260;DHT22;9256;52.236;5.712;2023-07-31T12:57:28;19.00;99.90
18260;DHT22;9256;52.236;5.712;2023-07-31T12:59:56;19.00;99.90
18260;DHT22;9256;52.236;5.712;2023-07-31T13:02:23;19.00;99.90
18260;DHT22;9256;52.236;5.712;2023-07-31T13:04:50;19.00;99.90
18260;DHT22;9256;52.236;5.712;2023-07-31T13:07:17;18.90;99.90
18260;DHT22;9256;52.236;5.712;2023-07-31T13:09:45;18.90;99.90
18260;DHT22;9256;52.236;5.712;2023-07-31T13:12:11;18.90;99.90
18260;DHT22;9256;52.236;5.712;2023-07-31T13:14:38;18.90;99.90
18260;DHT22;9256;52.236;5.712;2023-07-31T13:17:07;18.80;99.90
18260;DHT22;9256;52.236;5.712;2023-07-31T13:19:34;19.00;99.90
18260;DHT22;9256;52.236;5.712;2023-07-31T13:22:00;19.20;99.90
18260;DHT22;9256;52.236;5.712;2023-07-31T13:24:27;19.30;99.90
18260;DHT22;9256;52.236;5.712;2023-07-31T13:26:55;19.30;99.90
18260;DHT22;9256;52.236;5.712;2023-07-31T13:29:22;19.30;99.90
18260;DHT22;9256;52.236;5.712;2023-07-31T13:31:50;19.30;99.90
18260;DHT22;9256;52.236;5.712;2023-07-31T13:34:18;19.20;99.90
18260;DHT22;9256;52.236;5.712;2023-07-31T13:36:45;19.20;99.90
18260;DHT22;9256;52.236;5.712;2023-07-31T13:39:12;19.20;99.90
18260;DHT22;9256;52.236;5.712;2023-07-31T13:41:38;19.30;99.90
18260;DHT22;9256;52.236;5.712;2023-07-31T13:44:05;19.30;99.90
18260;DHT22;9256;52.236;5.712;2023-07-31T13:46:32;19.40;99.90
18260;DHT22;9256;52.236;5.712;2023-07-31T13:48:59;19.50;99.90
18260;DHT22;9256;52.236;5.712;2023-07-31T13:51:28;19.70;99.90
18260;DHT22;9256;52.236;5.712;2023-07-31T13:53:55;19.90;99.90
18260;DHT22;9256;52.236;5.712;2023-07-31T13:56:22;20.00;99.90
18260;DHT22;9256;52.236;5.712;2023-07-31T13:58:49;20.00;99.90
18260;DHT22;9256;52.236;5.712;2023-07-31T14:01:16;19.70;99.90
18260;DHT22;9256;52.236;5.712;2023-07-31T14:03:43;19.50;99.90
18260;DHT22;9256;52.236;5.712;2023-07-31T14:06:10;19.40;99.90
18260;DHT22;9256;52.236;5.712;2023-07-31T14:08:38;19.20;99.90
18260;DHT22;9256;52.236;5.712;2023-07-31T14:11:05;19.10;99.90
18260;DHT22;9256;52.236;5.712;2023-07-31T14:13:32;19.00;99.90
18260;DHT22;9256;52.236;5.712;2023-07-31T14:15:59;18.80;99.90
18260;DHT22;9256;52.236;5.712;2023-07-31T14:18:26;18.80;99.90
18260;DHT22;9256;52.236;5.712;2023-07-31T14:20:53;18.80;99.90
18260;DHT22;9256;52.236;5.712;2023-07-31T14:23:20;18.80;99.90
18260;DHT22;9256;52.236;5.712;2023-07-31T14:25:48;18.80;99.90
18260;DHT22;9256;52.236;5.712;2023-07-31T14:28:15;18.80;99.90
18260;DHT22;9256;52.236;5.712;2023-07-31T14:30:42;18.70;99.90
18260;DHT22;9256;52.236;5.712;2023-07-31T14:33:09;18.70;99.90
18260;DHT22;9256;52.236;5.712;2023-07-31T14:35:36;18.70;99.90
18260;DHT22;9256;52.236;5.712;2023-07-31T14:38:03;18.60;99.90
18260;DHT22;9256;52.236;5.712;2023-07-31T14:40:30;18.60;99.90
18260;DHT22;9256;52.236;5.712;2023-07-31T14:42:58;18.50;99.90
18260;DHT22;9256;52.236;5.712;2023-07-31T14:45:25;18.50;99.90
18260;DHT22;9256;52.236;5.712;2023-07-31T14:47:52;18.50;99.90
18260;DHT22;9256;52.236;5.712;2023-07-31T14:50:20;18.50;99.90
18260;DHT22;9256;52.236;5.712;2023-07-31T14:52:47;18.50;99.90
18260;DHT22;9256;52.236;5.712;2023-07-31T14:55:14;18.50;99.90
18260;DHT22;9256;52.236;5.712;2023-07-31T14:57:41;18.40;99.90
18260;DHT22;9256;52.236;5.712;2023-07-31T15:00:10;18.40;99.90
18260;DHT22;9256;52.236;5.712;2023-07-31T15:02:37;18.40;99.90
18260;DHT22;9256;52.236;5.712;2023-07-31T15:05:05;18.40;99.90
18260;DHT22;9256;52.236;5.712;2023-07-31T15:07:32;18.50;99.90
18260;DHT22;9256;52.236;5.712;2023-07-31T15:10:00;18.40;99.90
18260;DHT22;9256;52.236;5.712;2023-07-31T15:12:27;18.40;99.90
18260;DHT22;9256;52.236;5.712;2023-07-31T15:14:54;18.40;99.90
18260;DHT22;9256;52.236;5.712;2023-07-31T15:17:23;18.50;99.90
18260;DHT22;9256;52.236;5.712;2023-07-31T15:19:49;18.50;99.90
18260;DHT22;9256;52.236;5.712;2023-07-31T15:22:16;18.50;99.90
18260;DHT22;9256;52.236;5.712;2023-07-31T15:24:43;18.40;99.90
18260;DHT22;9256;52.236;5.712;2023-07-31T15:27:10;18.40;99.90
18260;DHT22;9256;52.236;5.712;2023-07-31T15:29:37;18.40;99.90
18260;DHT22;9256;52.236;5.712;2023-07-31T15:32:05;18.40;99.90
18260;DHT22;9256;52.236;5.712;2023-07-31T15:34:33;18.30;99.90
18260;DHT22;9256;52.236;5.712;2023-07-31T15:37:00;18.40;99.90
18260;DHT22;9256;52.236;5.712;2023-07-31T15:39:27;18.40;99.90
18260;DHT22;9256;52.236;5.712;2023-07-31T15:41:54;18.30;99.90
18260;DHT22;9256;52.236;5.712;2023-07-31T15:44:21;18.30;99.90
18260;DHT22;9256;52.236;5.712;2023-07-31T15:46:48;18.30;99.90
18260;DHT22;9256;52.236;5.712;2023-07-31T15:49:15;18.30;99.90